sensor_id;sensor_type;location;lat;lon;timestamp;temperature;humidity
71672;DHT22;67659;45.554;11.812;2023-03-23T00:01:28;12.70;99.90
71672;DHT22;67659;45.554;11.812;2023-03-23T00:03:57;12.70;99.90
71672;DHT22;67659;45.554;11.812;2023-03-23T00:06:25;12.70;99.90
71672;DHT22;67659;45.554;11.812;2023-03-23T00:08:53;12.70;99.90
71672;DHT22;67659;45.554;11.812;2023-03-23T00:11:30;12.80;99.90
71672;DHT22;67659;45.554;11.812;2023-03-23T00:13:58;12.60;99.90
71672;DHT22;67659;45.554;11.812;2023-03-23T00:16:28;12.40;99.90
71672;DHT22;67659;45.554;11.812;2023-03-23T00:19:10;12.50;99.90
71672;DHT22;67659;45.554;11.812;2023-03-23T00:21:39;12.60;99.90
71672;DHT22;67659;45.554;11.812;2023-03-23T00:24:12;12.30;98.80
71672;DHT22;67659;45.554;11.812;2023-03-23T00:26:39;12.40;99.90
71672;DHT22;67659;45.554;11.812;2023-03-23T00:29:08;12.40;99.90
71672;DHT22;67659;45.554;11.812;2023-03-23T00:31:35;12.40;99.90
71672;DHT22;67659;45.554;11.812;2023-03-23T00:34:03;12.50;99.90
71672;DHT22;67659;45.554;11.812;2023-03-23T00:36:33;12.40;99.90
71672;DHT22;67659;45.554;11.812;2023-03-23T00:39:04;12.40;99.90
71672;DHT22;67659;45.554;11.812;2023-03-23T00:41:31;12.40;99.90
71672;DHT22;67659;45.554;11.812;2023-03-23T00:43:58;12.30;99.90
71672;DHT22;67659;45.554;11.812;2023-03-23T00:46:28;12.30;99.90
71672;DHT22;67659;45.554;11.812;2023-03-23T00:48:56;12.20;99.90
71672;DHT22;67659;45.554;11.812;2023-03-23T00:51:23;12.00;99.90
71672;DHT22;67659;45.554;11.812;2023-03-23T00:53:49;12.10;99.90
71672;DHT22;67659;45.554;11.812;2023-03-23T00:56:15;12.00;99.90
71672;DHT22;67659;45.554;11.812;2023-03-23T00:58:42;12.10;99.90
71672;DHT22;67659;45.554;11.812;2023-03-23T01:01:08;12.10;99.90
71672;DHT22;67659;45.554;11.812;2023-03-23T01:03:34;12.00;99.90
71672;DHT22;67659;45.554;11.812;2023-03-23T01:06:06;11.80;99.90
71672;DHT22;67659;45.554;11.812;2023-03-23T01:08:34;11.90;99.90
71672;DHT22;67659;45.554;11.812;2023-03-23T01:11:04;11.80;99.90
71672;DHT22;67659;45.554;11.812;2023-03-23T01:13:30;11.60;99.80
71672;DHT22;67659;45.554;11.812;2023-03-23T01:15:56;11.60;99.60
71672;DHT22;67659;45.554;11.812;2023-03-23T01:18:22;11.50;99.90
71672;DHT22;67659;45.554;11.812;2023-03-23T01:20:47;11.30;99.90
71672;DHT22;67659;45.554;11.812;2023-03-23T01:23:13;11.30;97.60
71672;DHT22;67659;45.554;11.812;2023-03-23T01:25:39;11.10;99.90
71672;DHT22;67659;45.554;11.812;2023-03-23T01:28:05;11.00;99.00
71672;DHT22;67659;45.554;11.812;2023-03-23T01:30:31;10.90;99.90
71672;DHT22;67659;45.554;11.812;2023-03-23T01:32:57;10.80;99.90
71672;DHT22;67659;45.554;11.812;2023-03-23T01:35:23;10.80;99.90
71672;DHT22;67659;45.554;11.812;2023-03-23T01:37:48;10.80;99.90
71672;DHT22;67659;45.554;11.812;2023-03-23T01:40:15;10.70;99.90
71672;DHT22;67659;45.554;11.812;2023-03-23T01:42:41;10.60;99.90
71672;DHT22;67659;45.554;11.812;2023-03-23T01:48:27;10.70;99.90
71672;DHT22;67659;45.554;11.812;2023-03-23T01:53:45;10.90;99.90
71672;DHT22;67659;45.554;11.812;2023-03-23T01:56:14;11.00;99.90
71672;DHT22;67659;45.554;11.812;2023-03-23T01:58:42;11.10;99.90
71672;DHT22;67659;45.554;11.812;2023-03-23T02:01:11;11.00;99.90
71672;DHT22;67659;45.554;11.812;2023-03-23T02:03:41;11.00;99.90
71672;DHT22;67659;45.554;11.812;2023-03-23T02:06:08;10.90;99.90
71672;DHT22;67659;45.554;11.812;2023-03-23T02:08:34;10.90;99.90
71672;DHT22;67659;45.554;11.812;2023-03-23T02:11:01;10.90;99.90
71672;DHT22;67659;45.554;11.812;2023-03-23T02:13:28;10.90;99.90
71672;DHT22;67659;45.554;11.812;2023-03-23T02:27:02;10.90;99.90
71672;DHT22;67659;45.554;11.812;2023-03-23T02:29:58;10.90;99.90
71672;DHT22;67659;45.554;11.812;2023-03-23T02:35:30;10.90;99.90
71672;DHT22;67659;45.554;11.812;2023-03-23T02:38:16;10.90;99.90
71672;DHT22;67659;45.554;11.812;2023-03-23T02:40:46;10.70;99.90
71672;DHT22;67659;45.554;11.812;2023-03-23T02:43:18;10.70;99.90
71672;DHT22;67659;45.554;11.812;2023-03-23T02:45:46;10.70;99.90
71672;DHT22;67659;45.554;11.812;2023-03-23T02:48:14;10.60;99.90
71672;DHT22;67659;45.554;11.812;2023-03-23T02:50:44;10.60;99.90
71672;DHT22;67659;45.554;11.812;2023-03-23T02:53:13;10.60;99.90
71672;DHT22;67659;45.554;11.812;2023-03-23T02:55:42;10.70;99.90
71672;DHT22;67659;45.554;11.812;2023-03-23T02:58:09;10.80;99.90
71672;DHT22;67659;45.554;11.812;2023-03-23T03:00:38;10.70;99.90
71672;DHT22;67659;45.554;11.812;2023-03-23T03:03:05;10.60;99.90
71672;DHT22;67659;45.554;11.812;2023-03-23T03:05:49;10.60;99.90
71672;DHT22;67659;45.554;11.812;2023-03-23T03:10:57;10.60;99.90
71672;DHT22;67659;45.554;11.812;2023-03-23T03:16:27;10.60;99.90
71672;DHT22;67659;45.554;11.812;2023-03-23T03:19:06;10.60;99.90
71672;DHT22;67659;45.554;11.812;2023-03-23T03:21:38;10.60;99.90
71672;DHT22;67659;45.554;11.812;2023-03-23T03:24:06;10.60;99.90
71672;DHT22;67659;45.554;11.812;2023-03-23T03:26:40;10.60;99.90
71672;DHT22;67659;45.554;11.812;2023-03-23T03:29:15;10.70;99.90
71672;DHT22;67659;45.554;11.812;2023-03-23T03:31:44;10.60;99.90
71672;DHT22;67659;45.554;11.812;2023-03-23T03:34:12;10.90;99.90
71672;DHT22;67659;45.554;11.812;2023-03-23T03:36:46;10.60;99.90
71672;DHT22;67659;45.554;11.812;2023-03-23T03:39:15;10.60;99.90
71672;DHT22;67659;45.554;11.812;2023-03-23T03:41:43;10.60;99.90
71672;DHT22;67659;45.554;11.812;2023-03-23T03:44:09;10.60;99.90
71672;DHT22;67659;45.554;11.812;2023-03-23T03:46:36;10.60;99.90
71672;DHT22;67659;45.554;11.812;2023-03-23T03:49:04;10.70;99.90
71672;DHT22;67659;45.554;11.812;2023-03-23T03:51:31;10.50;99.90
71672;DHT22;67659;45.554;11.812;2023-03-23T03:54:00;10.60;99.90
71672;DHT22;67659;45.554;11.812;2023-03-23T03:56:26;10.60;99.90
71672;DHT22;67659;45.554;11.812;2023-03-23T03:58:52;10.50;99.90
71672;DHT22;67659;45.554;11.812;2023-03-23T04:01:20;10.40;99.90
71672;DHT22;67659;45.554;11.812;2023-03-23T04:03:50;10.20;99.90
71672;DHT22;67659;45.554;11.812;2023-03-23T04:06:17;10.20;99.90
71672;DHT22;67659;45.554;11.812;2023-03-23T04:08:43;10.20;99.90
71672;DHT22;67659;45.554;11.812;2023-03-23T04:11:14;10.10;99.90
71672;DHT22;67659;45.554;11.812;2023-03-23T04:13:41;10.20;99.90
71672;DHT22;67659;45.554;11.812;2023-03-23T04:16:10;10.10;99.90
71672;DHT22;67659;45.554;11.812;2023-03-23T04:18:36;10.10;99.90
71672;DHT22;67659;45.554;11.812;2023-03-23T04:21:03;10.10;99.90
71672;DHT22;67659;45.554;11.812;2023-03-23T04:23:30;9.90;99.90
71672;DHT22;67659;45.554;11.812;2023-03-23T04:25:59;9.90;99.90
71672;DHT22;67659;45.554;11.812;2023-03-23T04:28:25;9.90;99.90
71672;DHT22;67659;45.554;11.812;2023-03-23T04:30:54;9.90;99.90
71672;DHT22;67659;45.554;11.812;2023-03-23T04:33:24;10.10;99.90
71672;DHT22;67659;45.554;11.812;2023-03-23T04:35:52;10.00;99.90
71672;DHT22;67659;45.554;11.812;2023-03-23T04:38:20;9.80;99.90
71672;DHT22;67659;45.554;11.812;2023-03-23T04:40:47;9.80;99.90
71672;DHT22;67659;45.554;11.812;2023-03-23T04:43:21;9.70;99.90
71672;DHT22;67659;45.554;11.812;2023-03-23T04:45:56;9.80;99.90
71672;DHT22;67659;45.554;11.812;2023-03-23T04:48:27;9.80;99.90
71672;DHT22;67659;45.554;11.812;2023-03-23T04:50:54;9.90;99.90
71672;DHT22;67659;45.554;11.812;2023-03-23T04:53:21;9.90;99.90
71672;DHT22;67659;45.554;11.812;2023-03-23T04:55:48;10.00;99.90
71672;DHT22;67659;45.554;11.812;2023-03-23T04:58:15;10.10;99.90
71672;DHT22;67659;45.554;11.812;2023-03-23T05:00:41;10.20;99.90
71672;DHT22;67659;45.554;11.812;2023-03-23T05:03:10;10.10;99.90
71672;DHT22;67659;45.554;11.812;2023-03-23T05:05:36;10.10;99.90
71672;DHT22;67659;45.554;11.812;2023-03-23T05:08:03;10.00;99.90
71672;DHT22;67659;45.554;11.812;2023-03-23T05:10:29;9.90;99.90
71672;DHT22;67659;45.554;11.812;2023-03-23T05:12:55;9.90;99.90
71672;DHT22;67659;45.554;11.812;2023-03-23T05:15:20;9.90;99.90
71672;DHT22;67659;45.554;11.812;2023-03-23T05:17:47;9.90;99.90
71672;DHT22;67659;45.554;11.812;2023-03-23T05:20:16;10.00;99.90
71672;DHT22;67659;45.554;11.812;2023-03-23T05:22:46;10.10;99.90
71672;DHT22;67659;45.554;11.812;2023-03-23T05:25:16;10.20;99.90
71672;DHT22;67659;45.554;11.812;2023-03-23T05:27:46;10.10;99.90
71672;DHT22;67659;45.554;11.812;2023-03-23T05:30:15;10.10;99.90
71672;DHT22;67659;45.554;11.812;2023-03-23T05:32:43;10.30;99.90
71672;DHT22;67659;45.554;11.812;2023-03-23T05:35:11;10.30;99.90
71672;DHT22;67659;45.554;11.812;2023-03-23T05:37:38;10.40;99.90
71672;DHT22;67659;45.554;11.812;2023-03-23T05:40:05;10.40;99.90
71672;DHT22;67659;45.554;11.812;2023-03-23T05:42:33;10.50;99.90
71672;DHT22;67659;45.554;11.812;2023-03-23T05:45:00;10.50;99.90
71672;DHT22;67659;45.554;11.812;2023-03-23T05:47:27;10.50;99.90
71672;DHT22;67659;45.554;11.812;2023-03-23T05:49:53;10.40;99.90
71672;DHT22;67659;45.554;11.812;2023-03-23T05:52:19;10.50;99.90
71672;DHT22;67659;45.554;11.812;2023-03-23T05:54:46;10.50;99.90
71672;DHT22;67659;45.554;11.812;2023-03-23T05:57:12;10.50;99.90
71672;DHT22;67659;45.554;11.812;2023-03-23T05:59:38;10.50;99.90
71672;DHT22;67659;45.554;11.812;2023-03-23T06:02:04;10.70;99.90
71672;DHT22;67659;45.554;11.812;2023-03-23T06:04:31;10.80;99.90
71672;DHT22;67659;45.554;11.812;2023-03-23T06:07:02;10.90;99.90
71672;DHT22;67659;45.554;11.812;2023-03-23T06:09:29;11.00;99.90
71672;DHT22;67659;45.554;11.812;2023-03-23T06:11:55;11.20;99.90
71672;DHT22;67659;45.554;11.812;2023-03-23T06:14:21;11.10;99.90
71672;DHT22;67659;45.554;11.812;2023-03-23T06:16:47;11.40;99.90
71672;DHT22;67659;45.554;11.812;2023-03-23T06:19:14;11.60;99.90
71672;DHT22;67659;45.554;11.812;2023-03-23T06:21:41;11.60;99.90
71672;DHT22;67659;45.554;11.812;2023-03-23T06:24:08;12.00;99.90
71672;DHT22;67659;45.554;11.812;2023-03-23T06:26:37;12.30;99.90
71672;DHT22;67659;45.554;11.812;2023-03-23T06:29:05;12.50;99.90
71672;DHT22;67659;45.554;11.812;2023-03-23T06:31:58;12.60;99.90
71672;DHT22;67659;45.554;11.812;2023-03-23T06:34:24;13.00;99.90
71672;DHT22;67659;45.554;11.812;2023-03-23T06:36:51;13.30;99.90
71672;DHT22;67659;45.554;11.812;2023-03-23T06:39:17;13.50;99.90
71672;DHT22;67659;45.554;11.812;2023-03-23T06:41:43;13.80;99.90
71672;DHT22;67659;45.554;11.812;2023-03-23T06:44:08;14.00;99.90
71672;DHT22;67659;45.554;11.812;2023-03-23T06:46:39;14.40;99.90
71672;DHT22;67659;45.554;11.812;2023-03-23T06:49:05;14.70;99.50
71672;DHT22;67659;45.554;11.812;2023-03-23T06:51:31;15.00;99.00
71672;DHT22;67659;45.554;11.812;2023-03-23T06:53:57;15.30;97.50
71672;DHT22;67659;45.554;11.812;2023-03-23T06:56:23;15.50;94.80
71672;DHT22;67659;45.554;11.812;2023-03-23T06:58:49;16.00;92.80
71672;DHT22;67659;45.554;11.812;2023-03-23T07:01:15;16.30;90.70
71672;DHT22;67659;45.554;11.812;2023-03-23T07:03:41;16.70;89.20
71672;DHT22;67659;45.554;11.812;2023-03-23T07:06:08;17.10;86.60
71672;DHT22;67659;45.554;11.812;2023-03-23T07:08:34;17.20;83.90
71672;DHT22;67659;45.554;11.812;2023-03-23T07:11:01;17.60;82.00
71672;DHT22;67659;45.554;11.812;2023-03-23T07:13:27;17.50;81.00
71672;DHT22;67659;45.554;11.812;2023-03-23T07:15:53;17.10;81.90
71672;DHT22;67659;45.554;11.812;2023-03-23T07:18:19;16.80;84.00
71672;DHT22;67659;45.554;11.812;2023-03-23T07:20:49;16.70;86.30
71672;DHT22;67659;45.554;11.812;2023-03-23T07:23:16;16.60;87.60
71672;DHT22;67659;45.554;11.812;2023-03-23T07:25:42;16.60;86.30
71672;DHT22;67659;45.554;11.812;2023-03-23T07:28:09;17.10;85.60
71672;DHT22;67659;45.554;11.812;2023-03-23T07:30:35;18.10;82.90
71672;DHT22;67659;45.554;11.812;2023-03-23T07:33:04;19.00;79.70
71672;DHT22;67659;45.554;11.812;2023-03-23T07:35:31;20.10;75.70
71672;DHT22;67659;45.554;11.812;2023-03-23T07:37:57;21.20;73.60
71672;DHT22;67659;45.554;11.812;2023-03-23T07:40:23;21.90;71.90
71672;DHT22;67659;45.554;11.812;2023-03-23T07:42:56;21.50;68.50
71672;DHT22;67659;45.554;11.812;2023-03-23T07:45:23;20.70;72.90
71672;DHT22;67659;45.554;11.812;2023-03-23T07:47:49;20.00;74.90
71672;DHT22;67659;45.554;11.812;2023-03-23T07:50:16;19.40;75.10
71672;DHT22;67659;45.554;11.812;2023-03-23T07:52:43;18.90;77.20
71672;DHT22;67659;45.554;11.812;2023-03-23T07:55:11;18.90;78.40
71672;DHT22;67659;45.554;11.812;2023-03-23T07:57:46;19.20;78.80
71672;DHT22;67659;45.554;11.812;2023-03-23T08:00:17;19.80;77.00
71672;DHT22;67659;45.554;11.812;2023-03-23T08:02:53;20.10;76.10
71672;DHT22;67659;45.554;11.812;2023-03-23T08:05:20;20.40;75.20
71672;DHT22;67659;45.554;11.812;2023-03-23T08:07:47;20.70;73.90
71672;DHT22;67659;45.554;11.812;2023-03-23T08:10:15;20.70;72.80
71672;DHT22;67659;45.554;11.812;2023-03-23T08:12:42;20.70;73.20
71672;DHT22;67659;45.554;11.812;2023-03-23T08:15:10;20.30;73.10
71672;DHT22;67659;45.554;11.812;2023-03-23T08:17:43;20.00;74.50
71672;DHT22;67659;45.554;11.812;2023-03-23T08:20:11;19.50;75.60
71672;DHT22;67659;45.554;11.812;2023-03-23T08:22:40;19.20;77.10
71672;DHT22;67659;45.554;11.812;2023-03-23T08:25:07;19.20;77.60
71672;DHT22;67659;45.554;11.812;2023-03-23T08:27:34;19.20;77.70
71672;DHT22;67659;45.554;11.812;2023-03-23T08:30:00;19.30;77.50
71672;DHT22;67659;45.554;11.812;2023-03-23T08:32:26;19.70;76.90
71672;DHT22;67659;45.554;11.812;2023-03-23T08:34:53;19.80;76.20
71672;DHT22;67659;45.554;11.812;2023-03-23T08:37:19;20.50;72.30
71672;DHT22;67659;45.554;11.812;2023-03-23T08:39:45;20.90;73.90
71672;DHT22;67659;45.554;11.812;2023-03-23T08:42:11;22.10;71.80
71672;DHT22;67659;45.554;11.812;2023-03-23T08:44:37;22.60;68.00
71672;DHT22;67659;45.554;11.812;2023-03-23T08:47:04;22.30;66.50
71672;DHT22;67659;45.554;11.812;2023-03-23T08:49:32;22.10;66.70
71672;DHT22;67659;45.554;11.812;2023-03-23T08:52:00;21.70;66.70
71672;DHT22;67659;45.554;11.812;2023-03-23T08:54:26;21.20;70.60
71672;DHT22;67659;45.554;11.812;2023-03-23T08:56:52;20.90;71.30
71672;DHT22;67659;45.554;11.812;2023-03-23T08:59:18;20.50;73.70
71672;DHT22;67659;45.554;11.812;2023-03-23T09:01:44;20.40;72.70
71672;DHT22;67659;45.554;11.812;2023-03-23T09:04:09;20.70;73.10
71672;DHT22;67659;45.554;11.812;2023-03-23T09:06:38;21.20;71.40
71672;DHT22;67659;45.554;11.812;2023-03-23T09:09:04;22.00;68.90
71672;DHT22;67659;45.554;11.812;2023-03-23T09:11:35;23.30;64.20
71672;DHT22;67659;45.554;11.812;2023-03-23T09:14:02;24.80;57.20
71672;DHT22;67659;45.554;11.812;2023-03-23T09:16:28;26.40;52.50
71672;DHT22;67659;45.554;11.812;2023-03-23T09:18:55;27.10;50.20
71672;DHT22;67659;45.554;11.812;2023-03-23T09:21:25;27.40;47.70
71672;DHT22;67659;45.554;11.812;2023-03-23T09:23:52;28.30;44.10
71672;DHT22;67659;45.554;11.812;2023-03-23T09:26:18;28.70;42.60
71672;DHT22;67659;45.554;11.812;2023-03-23T09:28:44;28.40;43.40
71672;DHT22;67659;45.554;11.812;2023-03-23T09:31:12;28.40;44.60
71672;DHT22;67659;45.554;11.812;2023-03-23T09:33:38;28.90;43.10
71672;DHT22;67659;45.554;11.812;2023-03-23T09:36:05;28.80;43.80
71672;DHT22;67659;45.554;11.812;2023-03-23T09:38:33;27.80;43.40
71672;DHT22;67659;45.554;11.812;2023-03-23T09:43:54;25.50;48.00
71672;DHT22;67659;45.554;11.812;2023-03-23T09:46:30;25.00;50.20
71672;DHT22;67659;45.554;11.812;2023-03-23T09:49:03;24.80;50.90
71672;DHT22;67659;45.554;11.812;2023-03-23T09:51:44;25.40;51.70
71672;DHT22;67659;45.554;11.812;2023-03-23T09:56:59;26.40;45.20
71672;DHT22;67659;45.554;11.812;2023-03-23T09:59:51;28.60;41.90
71672;DHT22;67659;45.554;11.812;2023-03-23T10:02:29;28.40;38.70
71672;DHT22;67659;45.554;11.812;2023-03-23T10:05:06;27.90;42.60
71672;DHT22;67659;45.554;11.812;2023-03-23T10:07:38;27.50;43.20
71672;DHT22;67659;45.554;11.812;2023-03-23T10:10:04;28.30;42.50
71672;DHT22;67659;45.554;11.812;2023-03-23T10:15:20;29.10;40.20
71672;DHT22;67659;45.554;11.812;2023-03-23T10:18:04;29.10;38.60
71672;DHT22;67659;45.554;11.812;2023-03-23T10:20:43;28.80;38.00
71672;DHT22;67659;45.554;11.812;2023-03-23T10:26:02;26.80;41.60
71672;DHT22;67659;45.554;11.812;2023-03-23T10:28:39;27.30;42.00
71672;DHT22;67659;45.554;11.812;2023-03-23T10:31:13;27.40;41.20
71672;DHT22;67659;45.554;11.812;2023-03-23T10:33:48;27.90;37.80
71672;DHT22;67659;45.554;11.812;2023-03-23T10:36:21;28.20;38.00
71672;DHT22;67659;45.554;11.812;2023-03-23T10:41:38;28.60;36.60
71672;DHT22;67659;45.554;11.812;2023-03-23T10:44:24;28.70;37.80
71672;DHT22;67659;45.554;11.812;2023-03-23T10:47:00;29.90;34.60
71672;DHT22;67659;45.554;11.812;2023-03-23T10:52:41;31.50;32.10
71672;DHT22;67659;45.554;11.812;2023-03-23T10:55:16;32.40;31.20
71672;DHT22;67659;45.554;11.812;2023-03-23T10:57:59;33.30;29.20
71672;DHT22;67659;45.554;11.812;2023-03-23T11:00:27;34.20;27.80
71672;DHT22;67659;45.554;11.812;2023-03-23T11:03:04;34.90;27.20
71672;DHT22;67659;45.554;11.812;2023-03-23T11:05:38;33.90;28.90
71672;DHT22;67659;45.554;11.812;2023-03-23T11:08:14;33.60;28.50
71672;DHT22;67659;45.554;11.812;2023-03-23T11:10:48;33.50;27.60
71672;DHT22;67659;45.554;11.812;2023-03-23T11:13:16;32.50;29.60
71672;DHT22;67659;45.554;11.812;2023-03-23T11:15:44;32.10;30.00
71672;DHT22;67659;45.554;11.812;2023-03-23T11:18:19;32.10;28.50
71672;DHT22;67659;45.554;11.812;2023-03-23T11:20:49;33.40;28.10
71672;DHT22;67659;45.554;11.812;2023-03-23T11:23:24;34.30;25.40
71672;DHT22;67659;45.554;11.812;2023-03-23T11:26:14;32.60;28.30
71672;DHT22;67659;45.554;11.812;2023-03-23T11:31:22;33.50;25.90
71672;DHT22;67659;45.554;11.812;2023-03-23T11:36:17;33.00;26.20
71672;DHT22;67659;45.554;11.812;2023-03-23T11:38:44;32.10;28.20
71672;DHT22;67659;45.554;11.812;2023-03-23T11:41:11;32.00;27.50
71672;DHT22;67659;45.554;11.812;2023-03-23T11:43:44;31.00;29.90
71672;DHT22;67659;45.554;11.812;2023-03-23T11:49:04;28.90;36.10
71672;DHT22;67659;45.554;11.812;2023-03-23T11:51:45;28.80;34.00
71672;DHT22;67659;45.554;11.812;2023-03-23T11:54:36;28.60;33.70
71672;DHT22;67659;45.554;11.812;2023-03-23T11:57:10;28.60;33.20
71672;DHT22;67659;45.554;11.812;2023-03-23T11:59:38;28.10;34.60
71672;DHT22;67659;45.554;11.812;2023-03-23T12:02:38;28.60;34.30
71672;DHT22;67659;45.554;11.812;2023-03-23T12:05:20;29.20;31.50
71672;DHT22;67659;45.554;11.812;2023-03-23T12:11:12;30.50;32.30
71672;DHT22;67659;45.554;11.812;2023-03-23T12:13:54;30.70;29.70
71672;DHT22;67659;45.554;11.812;2023-03-23T12:16:29;31.40;29.60
71672;DHT22;67659;45.554;11.812;2023-03-23T12:24:25;33.20;27.00
71672;DHT22;67659;45.554;11.812;2023-03-23T12:29:52;34.00;26.80
71672;DHT22;67659;45.554;11.812;2023-03-23T12:32:45;32.50;27.00
71672;DHT22;67659;45.554;11.812;2023-03-23T12:37:56;31.50;29.00
71672;DHT22;67659;45.554;11.812;2023-03-23T12:40:29;31.00;29.00
71672;DHT22;67659;45.554;11.812;2023-03-23T12:46:08;30.10;30.80
71672;DHT22;67659;45.554;11.812;2023-03-23T12:48:41;30.60;34.20
71672;DHT22;67659;45.554;11.812;2023-03-23T12:51:32;31.20;32.10
71672;DHT22;67659;45.554;11.812;2023-03-23T12:54:13;31.80;30.40
71672;DHT22;67659;45.554;11.812;2023-03-23T12:56:53;32.80;27.70
71672;DHT22;67659;45.554;11.812;2023-03-23T12:59:41;33.40;26.70
71672;DHT22;67659;45.554;11.812;2023-03-23T13:02:31;33.70;26.10
71672;DHT22;67659;45.554;11.812;2023-03-23T13:05:06;33.50;28.70
71672;DHT22;67659;45.554;11.812;2023-03-23T13:07:48;33.20;29.50
71672;DHT22;67659;45.554;11.812;2023-03-23T13:10:19;33.20;28.40
71672;DHT22;67659;45.554;11.812;2023-03-23T13:12:48;34.30;27.20
71672;DHT22;67659;45.554;11.812;2023-03-23T13:18:46;34.30;25.40
71672;DHT22;67659;45.554;11.812;2023-03-23T13:24:04;33.90;27.60
71672;DHT22;67659;45.554;11.812;2023-03-23T13:26:31;34.00;26.10
71672;DHT22;67659;45.554;11.812;2023-03-23T13:29:18;34.60;26.30
71672;DHT22;67659;45.554;11.812;2023-03-23T13:31:46;34.80;25.20
71672;DHT22;67659;45.554;11.812;2023-03-23T13:34:25;35.10;25.10
71672;DHT22;67659;45.554;11.812;2023-03-23T13:36:57;35.70;23.70
71672;DHT22;67659;45.554;11.812;2023-03-23T13:39:34;35.10;23.50
71672;DHT22;67659;45.554;11.812;2023-03-23T13:49:58;33.30;25.70
71672;DHT22;67659;45.554;11.812;2023-03-23T14:05:49;32.40;26.20
71672;DHT22;67659;45.554;11.812;2023-03-23T14:10:56;30.60;28.60
71672;DHT22;67659;45.554;11.812;2023-03-23T14:16:01;29.60;30.20
71672;DHT22;67659;45.554;11.812;2023-03-23T14:18:36;29.50;30.20
71672;DHT22;67659;45.554;11.812;2023-03-23T14:21:03;28.80;33.30
71672;DHT22;67659;45.554;11.812;2023-03-23T14:23:32;28.80;33.70
71672;DHT22;67659;45.554;11.812;2023-03-23T14:26:05;28.70;33.60
71672;DHT22;67659;45.554;11.812;2023-03-23T14:28:38;28.60;35.20
71672;DHT22;67659;45.554;11.812;2023-03-23T14:31:12;28.70;31.70
71672;DHT22;67659;45.554;11.812;2023-03-23T14:33:40;28.60;32.10
71672;DHT22;67659;45.554;11.812;2023-03-23T14:36:07;29.00;32.00
71672;DHT22;67659;45.554;11.812;2023-03-23T14:38:33;29.40;30.90
71672;DHT22;67659;45.554;11.812;2023-03-23T14:41:04;29.40;30.30
71672;DHT22;67659;45.554;11.812;2023-03-23T14:43:32;29.10;32.40
71672;DHT22;67659;45.554;11.812;2023-03-23T14:46:02;28.90;30.60
71672;DHT22;67659;45.554;11.812;2023-03-23T14:48:30;28.10;31.50
71672;DHT22;67659;45.554;11.812;2023-03-23T14:51:01;26.90;33.50
71672;DHT22;67659;45.554;11.812;2023-03-23T14:56:02;26.30;35.20
71672;DHT22;67659;45.554;11.812;2023-03-23T14:58:29;26.40;37.00
71672;DHT22;67659;45.554;11.812;2023-03-23T15:03:22;27.10;34.90
71672;DHT22;67659;45.554;11.812;2023-03-23T15:05:56;28.20;32.80
71672;DHT22;67659;45.554;11.812;2023-03-23T15:08:34;28.90;30.30
71672;DHT22;67659;45.554;11.812;2023-03-23T15:11:07;29.10;29.80
71672;DHT22;67659;45.554;11.812;2023-03-23T15:13:35;28.40;31.40
71672;DHT22;67659;45.554;11.812;2023-03-23T15:16:11;27.40;33.60
71672;DHT22;67659;45.554;11.812;2023-03-23T15:18:39;27.10;34.10
71672;DHT22;67659;45.554;11.812;2023-03-23T15:21:23;26.30;36.00
71672;DHT22;67659;45.554;11.812;2023-03-23T15:23:49;26.20;36.70
71672;DHT22;67659;45.554;11.812;2023-03-23T15:26:27;26.30;38.90
71672;DHT22;67659;45.554;11.812;2023-03-23T15:29:13;26.00;40.10
71672;DHT22;67659;45.554;11.812;2023-03-23T15:31:46;25.60;40.70
71672;DHT22;67659;45.554;11.812;2023-03-23T15:34:34;25.50;41.50
71672;DHT22;67659;45.554;11.812;2023-03-23T15:37:24;25.30;41.60
71672;DHT22;67659;45.554;11.812;2023-03-23T15:39:51;25.10;43.60
71672;DHT22;67659;45.554;11.812;2023-03-23T15:42:35;24.60;44.60
71672;DHT22;67659;45.554;11.812;2023-03-23T15:50:34;23.80;47.60
71672;DHT22;67659;45.554;11.812;2023-03-23T15:53:13;23.70;47.80
71672;DHT22;67659;45.554;11.812;2023-03-23T15:55:41;23.50;50.50
71672;DHT22;67659;45.554;11.812;2023-03-23T15:58:12;23.20;51.20
71672;DHT22;67659;45.554;11.812;2023-03-23T16:00:39;23.20;50.90
71672;DHT22;67659;45.554;11.812;2023-03-23T16:03:07;23.00;51.40
71672;DHT22;67659;45.554;11.812;2023-03-23T16:05:34;22.90;51.50
71672;DHT22;67659;45.554;11.812;2023-03-23T16:08:00;22.70;52.30
71672;DHT22;67659;45.554;11.812;2023-03-23T16:10:27;22.60;54.40
71672;DHT22;67659;45.554;11.812;2023-03-23T16:12:53;21.90;55.90
71672;DHT22;67659;45.554;11.812;2023-03-23T16:15:19;22.00;55.90
71672;DHT22;67659;45.554;11.812;2023-03-23T16:17:45;22.30;55.20
71672;DHT22;67659;45.554;11.812;2023-03-23T16:20:17;22.40;54.00
71672;DHT22;67659;45.554;11.812;2023-03-23T16:22:44;22.30;53.60
71672;DHT22;67659;45.554;11.812;2023-03-23T16:25:11;22.40;54.20
71672;DHT22;67659;45.554;11.812;2023-03-23T16:27:38;22.30;55.30
71672;DHT22;67659;45.554;11.812;2023-03-23T16:30:12;22.30;54.90
71672;DHT22;67659;45.554;11.812;2023-03-23T16:32:39;22.20;56.00
71672;DHT22;67659;45.554;11.812;2023-03-23T16:35:05;22.20;56.00
71672;DHT22;67659;45.554;11.812;2023-03-23T16:37:31;22.00;56.90
71672;DHT22;67659;45.554;11.812;2023-03-23T16:39:58;22.00;57.90
71672;DHT22;67659;45.554;11.812;2023-03-23T16:42:24;21.90;57.80
71672;DHT22;67659;45.554;11.812;2023-03-23T16:44:50;21.70;59.20
71672;DHT22;67659;45.554;11.812;2023-03-23T16:47:16;21.70;59.80
71672;DHT22;67659;45.554;11.812;2023-03-23T16:49:43;21.60;59.40
71672;DHT22;67659;45.554;11.812;2023-03-23T16:52:10;21.50;59.90
71672;DHT22;67659;45.554;11.812;2023-03-23T16:54:36;21.50;60.40
71672;DHT22;67659;45.554;11.812;2023-03-23T16:57:02;21.30;62.10
71672;DHT22;67659;45.554;11.812;2023-03-23T16:59:28;21.20;63.30
71672;DHT22;67659;45.554;11.812;2023-03-23T17:01:53;21.00;64.40
71672;DHT22;67659;45.554;11.812;2023-03-23T17:04:19;20.90;65.40
71672;DHT22;67659;45.554;11.812;2023-03-23T17:06:45;20.70;67.30
71672;DHT22;67659;45.554;11.812;2023-03-23T17:09:11;20.70;67.90
71672;DHT22;67659;45.554;11.812;2023-03-23T17:11:37;20.50;71.20
71672;DHT22;67659;45.554;11.812;2023-03-23T17:14:03;20.40;71.40
71672;DHT22;67659;45.554;11.812;2023-03-23T17:16:28;20.20;72.40
71672;DHT22;67659;45.554;11.812;2023-03-23T17:18:54;19.80;73.40
71672;DHT22;67659;45.554;11.812;2023-03-23T17:21:20;19.60;73.60
71672;DHT22;67659;45.554;11.812;2023-03-23T17:23:50;19.60;73.80
71672;DHT22;67659;45.554;11.812;2023-03-23T17:26:16;19.80;73.60